sensor_id;sensor_type;location;lat;lon;timestamp;P1;P2;P0
65383;PMS5003;51986;52.788;41.368;2023-04-16T00:01:35;23.25;21.25;16.75
65383;PMS5003;51986;52.788;41.368;2023-04-16T00:04:02;18.75;18.00;15.00
65383;PMS5003;51986;52.788;41.368;2023-04-16T00:06:29;17.00;17.00;14.00
65383;PMS5003;51986;52.788;41.368;2023-04-16T00:08:56;19.00;18.50;14.75
65383;PMS5003;51986;52.788;41.368;2023-04-16T00:11:23;26.50;22.75;18.50
65383;PMS5003;51986;52.788;41.368;2023-04-16T00:13:50;27.00;23.00;19.00
65383;PMS5003;51986;52.788;41.368;2023-04-16T00:16:17;20.00;20.00;16.00
65383;PMS5003;51986;52.788;41.368;2023-04-16T00:18:44;20.50;20.00;16.75
65383;PMS5003;51986;52.788;41.368;2023-04-16T00:21:11;18.00;17.50;14.00
65383;PMS5003;51986;52.788;41.368;2023-04-16T00:23:38;18.00;18.00;14.50
65383;PMS5003;51986;52.788;41.368;2023-04-16T00:26:05;12.25;11.50;11.25
65383;PMS5003;51986;52.788;41.368;2023-04-16T00:28:32;19.25;18.75;14.25
65383;PMS5003;51986;52.788;41.368;2023-04-16T00:30:59;20.00;18.50;15.00
65383;PMS5003;51986;52.788;41.368;2023-04-16T00:33:28;23.50;21.00;17.75
65383;PMS5003;51986;52.788;41.368;2023-04-16T00:35:54;18.50;17.50;14.50
65383;PMS5003;51986;52.788;41.368;2023-04-16T00:38:21;16.00;15.50;13.00
65383;PMS5003;51986;52.788;41.368;2023-04-16T00:40:48;22.50;21.25;16.75
65383;PMS5003;51986;52.788;41.368;2023-04-16T00:43:24;27.50;24.00;19.00
65383;PMS5003;51986;52.788;41.368;2023-04-16T00:45:52;20.50;20.00;15.00
65383;PMS5003;51986;52.788;41.368;2023-04-16T00:48:22;16.00;14.25;13.00
65383;PMS5003;51986;52.788;41.368;2023-04-16T00:50:49;16.00;13.00;11.50
65383;PMS5003;51986;52.788;41.368;2023-04-16T00:53:16;18.00;17.00;13.00
65383;PMS5003;51986;52.788;41.368;2023-04-16T00:55:43;18.00;16.00;13.00
65383;PMS5003;51986;52.788;41.368;2023-04-16T00:58:11;24.50;21.50;16.50
65383;PMS5003;51986;52.788;41.368;2023-04-16T01:00:39;29.50;26.00;19.25
65383;PMS5003;51986;52.788;41.368;2023-04-16T01:03:06;30.00;24.50;19.25
65383;PMS5003;51986;52.788;41.368;2023-04-16T01:05:34;22.00;20.00;16.00
65383;PMS5003;51986;52.788;41.368;2023-04-16T01:08:02;25.00;22.50;18.50
65383;PMS5003;51986;52.788;41.368;2023-04-16T01:10:29;23.50;21.25;17.00
65383;PMS5003;51986;52.788;41.368;2023-04-16T01:12:56;18.00;17.00;15.00
65383;PMS5003;51986;52.788;41.368;2023-04-16T01:15:23;20.75;19.75;16.25
65383;PMS5003;51986;52.788;41.368;2023-04-16T01:17:50;19.00;19.00;15.00
65383;PMS5003;51986;52.788;41.368;2023-04-16T01:20:17;24.50;22.00;18.00
65383;PMS5003;51986;52.788;41.368;2023-04-16T01:22:44;22.00;21.00;17.00
65383;PMS5003;51986;52.788;41.368;2023-04-16T01:25:14;19.00;19.00;15.00
65383;PMS5003;51986;52.788;41.368;2023-04-16T01:27:41;18.00;17.50;14.00
65383;PMS5003;51986;52.788;41.368;2023-04-16T01:30:08;25.00;22.00;17.25
65383;PMS5003;51986;52.788;41.368;2023-04-16T01:32:48;23.50;21.00;17.00
65383;PMS5003;51986;52.788;41.368;2023-04-16T01:35:15;23.75;21.50;17.25
65383;PMS5003;51986;52.788;41.368;2023-04-16T01:37:43;22.50;21.00;16.75
65383;PMS5003;51986;52.788;41.368;2023-04-16T01:40:10;18.00;17.00;14.00
65383;PMS5003;51986;52.788;41.368;2023-04-16T01:42:37;17.00;15.00;13.00
65383;PMS5003;51986;52.788;41.368;2023-04-16T01:45:04;17.00;14.00;12.00
65383;PMS5003;51986;52.788;41.368;2023-04-16T01:47:31;21.25;19.50;15.50
65383;PMS5003;51986;52.788;41.368;2023-04-16T01:49:59;17.25;16.75;13.00
65383;PMS5003;51986;52.788;41.368;2023-04-16T01:52:28;21.25;18.75;14.50
65383;PMS5003;51986;52.788;41.368;2023-04-16T01:54:55;21.00;18.00;15.00
65383;PMS5003;51986;52.788;41.368;2023-04-16T01:57:22;18.00;17.75;14.00
65383;PMS5003;51986;52.788;41.368;2023-04-16T01:59:51;23.75;21.50;17.25
65383;PMS5003;51986;52.788;41.368;2023-04-16T02:02:18;28.00;23.00;18.00
65383;PMS5003;51986;52.788;41.368;2023-04-16T02:04:45;22.75;21.00;17.00
65383;PMS5003;51986;52.788;41.368;2023-04-16T02:07:12;21.25;20.25;15.25
65383;PMS5003;51986;52.788;41.368;2023-04-16T02:09:39;23.25;21.00;17.00
65383;PMS5003;51986;52.788;41.368;2023-04-16T02:12:07;26.75;22.75;18.00
65383;PMS5003;51986;52.788;41.368;2023-04-16T02:14:34;20.25;18.25;14.25
65383;PMS5003;51986;52.788;41.368;2023-04-16T02:17:01;18.00;17.00;14.25
65383;PMS5003;51986;52.788;41.368;2023-04-16T02:19:36;18.00;16.00;14.00
65383;PMS5003;51986;52.788;41.368;2023-04-16T02:22:03;26.50;22.00;17.50
65383;PMS5003;51986;52.788;41.368;2023-04-16T02:24:30;18.75;17.50;13.75
65383;PMS5003;51986;52.788;41.368;2023-04-16T02:27:00;16.25;16.00;13.00
65383;PMS5003;51986;52.788;41.368;2023-04-16T02:29:27;20.25;18.75;15.25
65383;PMS5003;51986;52.788;41.368;2023-04-16T02:32:01;20.50;20.00;16.00
65383;PMS5003;51986;52.788;41.368;2023-04-16T02:34:31;23.50;21.25;16.75
65383;PMS5003;51986;52.788;41.368;2023-04-16T02:36:58;18.75;16.75;13.75
65383;PMS5003;51986;52.788;41.368;2023-04-16T02:39:25;15.50;14.75;12.25
65383;PMS5003;51986;52.788;41.368;2023-04-16T02:41:52;21.25;20.00;16.00
65383;PMS5003;51986;52.788;41.368;2023-04-16T02:44:19;19.00;19.00;15.00
65383;PMS5003;51986;52.788;41.368;2023-04-16T02:46:46;20.75;19.50;15.50
65383;PMS5003;51986;52.788;41.368;2023-04-16T02:49:13;23.00;21.50;16.75
65383;PMS5003;51986;52.788;41.368;2023-04-16T02:51:40;22.00;21.00;16.00
65383;PMS5003;51986;52.788;41.368;2023-04-16T02:54:07;22.00;20.00;16.00
65383;PMS5003;51986;52.788;41.368;2023-04-16T02:56:34;18.00;18.00;15.00
65383;PMS5003;51986;52.788;41.368;2023-04-16T02:59:01;22.75;21.00;16.00
65383;PMS5003;51986;52.788;41.368;2023-04-16T03:01:28;20.00;18.25;15.00
65383;PMS5003;51986;52.788;41.368;2023-04-16T03:03:55;22.50;21.00;16.00
65383;PMS5003;51986;52.788;41.368;2023-04-16T03:06:22;24.75;22.00;17.00
65383;PMS5003;51986;52.788;41.368;2023-04-16T03:08:49;31.75;27.00;21.00
65383;PMS5003;51986;52.788;41.368;2023-04-16T03:11:16;30.50;24.50;20.00
65383;PMS5003;51986;52.788;41.368;2023-04-16T03:13:43;33.00;28.00;21.75
65383;PMS5003;51986;52.788;41.368;2023-04-16T03:16:10;34.00;29.00;22.00
65383;PMS5003;51986;52.788;41.368;2023-04-16T03:18:37;34.00;28.00;22.00
65383;PMS5003;51986;52.788;41.368;2023-04-16T03:21:04;34.00;28.75;22.25
65383;PMS5003;51986;52.788;41.368;2023-04-16T03:23:31;35.00;30.00;23.00
65383;PMS5003;51986;52.788;41.368;2023-04-16T03:25:58;36.75;30.50;24.00
65383;PMS5003;51986;52.788;41.368;2023-04-16T03:28:25;38.00;32.00;24.25
65383;PMS5003;51986;52.788;41.368;2023-04-16T03:30:52;38.00;31.00;25.00
65383;PMS5003;51986;52.788;41.368;2023-04-16T03:33:19;37.50;31.50;24.25
65383;PMS5003;51986;52.788;41.368;2023-04-16T03:35:53;38.50;31.50;25.00
65383;PMS5003;51986;52.788;41.368;2023-04-16T03:38:22;39.50;33.00;26.50
65383;PMS5003;51986;52.788;41.368;2023-04-16T03:40:49;40.50;33.50;26.00
65383;PMS5003;51986;52.788;41.368;2023-04-16T03:43:17;41.00;34.00;26.00
65383;PMS5003;51986;52.788;41.368;2023-04-16T03:45:44;41.00;33.25;26.00
65383;PMS5003;51986;52.788;41.368;2023-04-16T03:48:12;41.50;33.00;26.00
65383;PMS5003;51986;52.788;41.368;2023-04-16T03:50:39;37.00;31.00;24.00
65383;PMS5003;51986;52.788;41.368;2023-04-16T03:53:07;40.25;33.50;26.50
65383;PMS5003;51986;52.788;41.368;2023-04-16T03:55:35;41.00;35.00;28.00
65383;PMS5003;51986;52.788;41.368;2023-04-16T03:58:02;41.50;35.00;29.50
65383;PMS5003;51986;52.788;41.368;2023-04-16T04:00:30;41.50;34.00;28.00
65383;PMS5003;51986;52.788;41.368;2023-04-16T04:03:07;41.75;34.00;27.00
65383;PMS5003;51986;52.788;41.368;2023-04-16T04:05:38;41.75;35.00;28.00
65383;PMS5003;51986;52.788;41.368;2023-04-16T04:08:08;41.50;34.00;26.50
65383;PMS5003;51986;52.788;41.368;2023-04-16T04:10:35;42.00;34.00;28.00
65383;PMS5003;51986;52.788;41.368;2023-04-16T04:13:04;41.00;34.00;28.50
65383;PMS5003;51986;52.788;41.368;2023-04-16T04:15:34;41.00;33.50;27.50
65383;PMS5003;51986;52.788;41.368;2023-04-16T04:18:01;42.00;35.00;29.00
65383;PMS5003;51986;52.788;41.368;2023-04-16T04:20:28;41.00;34.00;27.00
65383;PMS5003;51986;52.788;41.368;2023-04-16T04:22:56;39.50;33.25;26.50
65383;PMS5003;51986;52.788;41.368;2023-04-16T04:25:24;41.00;33.00;26.50
65383;PMS5003;51986;52.788;41.368;2023-04-16T04:27:51;41.25;34.00;27.75
65383;PMS5003;51986;52.788;41.368;2023-04-16T04:30:18;40.00;33.00;27.00
65383;PMS5003;51986;52.788;41.368;2023-04-16T04:32:45;39.50;33.50;27.00
65383;PMS5003;51986;52.788;41.368;2023-04-16T04:35:14;38.00;32.50;25.50
65383;PMS5003;51986;52.788;41.368;2023-04-16T04:37:41;39.00;33.00;25.00
65383;PMS5003;51986;52.788;41.368;2023-04-16T04:40:15;38.00;32.00;25.50
65383;PMS5003;51986;52.788;41.368;2023-04-16T04:42:43;37.50;31.00;25.50
65383;PMS5003;51986;52.788;41.368;2023-04-16T04:45:10;37.25;31.50;25.00
65383;PMS5003;51986;52.788;41.368;2023-04-16T04:47:39;38.25;32.00;26.00
65383;PMS5003;51986;52.788;41.368;2023-04-16T04:50:06;38.00;32.00;26.00
65383;PMS5003;51986;52.788;41.368;2023-04-16T04:52:33;35.00;30.00;23.50
65383;PMS5003;51986;52.788;41.368;2023-04-16T04:55:01;37.00;31.50;24.00
65383;PMS5003;51986;52.788;41.368;2023-04-16T04:57:29;41.50;34.75;27.50
65383;PMS5003;51986;52.788;41.368;2023-04-16T04:59:56;42.25;35.25;27.00
65383;PMS5003;51986;52.788;41.368;2023-04-16T05:02:23;40.00;33.00;26.50
65383;PMS5003;51986;52.788;41.368;2023-04-16T05:04:50;37.00;31.00;24.75
65383;PMS5003;51986;52.788;41.368;2023-04-16T05:07:17;35.50;29.75;23.00
65383;PMS5003;51986;52.788;41.368;2023-04-16T05:09:44;34.00;28.50;22.50
65383;PMS5003;51986;52.788;41.368;2023-04-16T05:12:10;39.00;30.75;23.00
65383;PMS5003;51986;52.788;41.368;2023-04-16T05:14:37;38.50;31.50;23.50
65383;PMS5003;51986;52.788;41.368;2023-04-16T05:17:04;38.25;32.00;24.00
65383;PMS5003;51986;52.788;41.368;2023-04-16T05:19:31;37.50;31.00;24.00
65383;PMS5003;51986;52.788;41.368;2023-04-16T05:21:58;38.50;32.00;24.50
65383;PMS5003;51986;52.788;41.368;2023-04-16T05:24:25;40.00;33.00;25.25
65383;PMS5003;51986;52.788;41.368;2023-04-16T05:26:52;38.25;31.50;24.00
65383;PMS5003;51986;52.788;41.368;2023-04-16T05:29:19;36.00;29.50;22.50
65383;PMS5003;51986;52.788;41.368;2023-04-16T05:31:46;37.50;30.50;24.00
65383;PMS5003;51986;52.788;41.368;2023-04-16T05:34:13;38.50;32.00;25.00
65383;PMS5003;51986;52.788;41.368;2023-04-16T05:36:40;43.00;35.00;26.25
65383;PMS5003;51986;52.788;41.368;2023-04-16T05:39:07;39.00;31.50;24.00
65383;PMS5003;51986;52.788;41.368;2023-04-16T05:41:34;38.25;31.50;24.00
65383;PMS5003;51986;52.788;41.368;2023-04-16T05:44:01;36.00;29.50;23.00
65383;PMS5003;51986;52.788;41.368;2023-04-16T05:46:28;35.00;29.50;23.50
65383;PMS5003;51986;52.788;41.368;2023-04-16T05:48:57;34.50;28.75;23.00
65383;PMS5003;51986;52.788;41.368;2023-04-16T05:51:24;36.00;30.50;24.00
65383;PMS5003;51986;52.788;41.368;2023-04-16T05:53:51;33.75;28.50;23.00
65383;PMS5003;51986;52.788;41.368;2023-04-16T05:56:25;38.50;31.25;24.50
65383;PMS5003;51986;52.788;41.368;2023-04-16T05:58:52;40.00;32.50;24.25
65383;PMS5003;51986;52.788;41.368;2023-04-16T06:01:22;40.50;33.00;25.00
65383;PMS5003;51986;52.788;41.368;2023-04-16T06:03:51;35.00;29.75;23.00
65383;PMS5003;51986;52.788;41.368;2023-04-16T06:06:21;37.00;31.50;25.00
65383;PMS5003;51986;52.788;41.368;2023-04-16T06:08:51;38.00;31.00;24.00
65383;PMS5003;51986;52.788;41.368;2023-04-16T06:11:18;43.50;35.50;29.50
65383;PMS5003;51986;52.788;41.368;2023-04-16T06:13:45;41.25;34.00;27.00
65383;PMS5003;51986;52.788;41.368;2023-04-16T06:16:12;41.50;34.00;27.50
65383;PMS5003;51986;52.788;41.368;2023-04-16T06:18:39;40.50;32.50;25.50
65383;PMS5003;51986;52.788;41.368;2023-04-16T06:21:08;41.50;33.50;27.00
65383;PMS5003;51986;52.788;41.368;2023-04-16T06:23:35;38.50;31.00;24.00
65383;PMS5003;51986;52.788;41.368;2023-04-16T06:26:02;39.00;32.25;25.75
65383;PMS5003;51986;52.788;41.368;2023-04-16T06:28:29;40.00;32.75;26.00
65383;PMS5003;51986;52.788;41.368;2023-04-16T06:30:56;40.50;34.00;26.00
65383;PMS5003;51986;52.788;41.368;2023-04-16T06:33:22;36.50;31.00;24.00
65383;PMS5003;51986;52.788;41.368;2023-04-16T06:35:49;38.00;32.00;25.00
65383;PMS5003;51986;52.788;41.368;2023-04-16T06:38:17;38.00;31.00;24.00
65383;PMS5003;51986;52.788;41.368;2023-04-16T06:40:44;36.00;30.00;23.50
65383;PMS5003;51986;52.788;41.368;2023-04-16T06:43:10;36.50;30.50;23.25
65383;PMS5003;51986;52.788;41.368;2023-04-16T06:45:40;39.25;33.00;25.50
65383;PMS5003;51986;52.788;41.368;2023-04-16T06:48:07;38.00;31.50;25.00
65383;PMS5003;51986;52.788;41.368;2023-04-16T06:50:34;39.00;32.00;25.50
65383;PMS5003;51986;52.788;41.368;2023-04-16T06:53:01;39.25;32.00;25.50
65383;PMS5003;51986;52.788;41.368;2023-04-16T06:55:28;39.00;32.00;24.00
65383;PMS5003;51986;52.788;41.368;2023-04-16T06:57:58;40.50;33.50;26.00
65383;PMS5003;51986;52.788;41.368;2023-04-16T07:00:25;40.25;33.00;25.25
65383;PMS5003;51986;52.788;41.368;2023-04-16T07:02:51;39.75;32.00;25.00
65383;PMS5003;51986;52.788;41.368;2023-04-16T07:05:21;38.00;32.00;26.00
65383;PMS5003;51986;52.788;41.368;2023-04-16T07:07:48;38.00;32.00;25.00
65383;PMS5003;51986;52.788;41.368;2023-04-16T07:10:18;36.50;31.00;25.00
65383;PMS5003;51986;52.788;41.368;2023-04-16T07:12:45;36.00;31.00;25.00
65383;PMS5003;51986;52.788;41.368;2023-04-16T07:15:12;37.00;31.00;24.25
65383;PMS5003;51986;52.788;41.368;2023-04-16T07:17:39;36.00;30.75;24.50
65383;PMS5003;51986;52.788;41.368;2023-04-16T07:20:06;36.00;31.00;25.00
65383;PMS5003;51986;52.788;41.368;2023-04-16T07:22:34;37.00;31.00;25.00
65383;PMS5003;51986;52.788;41.368;2023-04-16T07:25:01;37.00;31.00;25.00
65383;PMS5003;51986;52.788;41.368;2023-04-16T07:27:28;37.50;31.25;25.00
65383;PMS5003;51986;52.788;41.368;2023-04-16T07:29:54;36.50;31.00;24.50
65383;PMS5003;51986;52.788;41.368;2023-04-16T07:32:21;36.25;31.25;24.25
65383;PMS5003;51986;52.788;41.368;2023-04-16T07:34:48;41.50;34.25;26.50
65383;PMS5003;51986;52.788;41.368;2023-04-16T07:37:15;42.00;34.00;27.00
65383;PMS5003;51986;52.788;41.368;2023-04-16T07:39:42;37.50;32.00;26.00
65383;PMS5003;51986;52.788;41.368;2023-04-16T07:42:09;37.00;31.50;25.00
65383;PMS5003;51986;52.788;41.368;2023-04-16T07:44:36;38.00;32.00;25.00
65383;PMS5003;51986;52.788;41.368;2023-04-16T07:47:03;36.00;30.00;24.00
65383;PMS5003;51986;52.788;41.368;2023-04-16T07:49:31;34.50;29.00;24.00
65383;PMS5003;51986;52.788;41.368;2023-04-16T07:51:58;35.50;30.50;24.50
65383;PMS5003;51986;52.788;41.368;2023-04-16T07:54:25;35.00;30.00;25.00
65383;PMS5003;51986;52.788;41.368;2023-04-16T07:56:54;36.00;30.50;24.50
65383;PMS5003;51986;52.788;41.368;2023-04-16T07:59:21;35.25;29.50;24.00
65383;PMS5003;51986;52.788;41.368;2023-04-16T08:01:51;36.00;31.00;25.00
65383;PMS5003;51986;52.788;41.368;2023-04-16T08:04:18;36.00;30.50;24.00
65383;PMS5003;51986;52.788;41.368;2023-04-16T08:06:46;36.00;31.00;25.00
65383;PMS5003;51986;52.788;41.368;2023-04-16T08:09:12;38.00;32.00;25.00
65383;PMS5003;51986;52.788;41.368;2023-04-16T08:11:39;36.25;31.00;24.00
65383;PMS5003;51986;52.788;41.368;2023-04-16T08:14:06;37.00;31.00;24.00
65383;PMS5003;51986;52.788;41.368;2023-04-16T08:16:33;37.00;31.00;24.00
65383;PMS5003;51986;52.788;41.368;2023-04-16T08:19:00;36.50;29.50;23.50
65383;PMS5003;51986;52.788;41.368;2023-04-16T08:21:27;35.00;29.00;24.00
65383;PMS5003;51986;52.788;41.368;2023-04-16T08:23:54;36.50;30.50;24.00
65383;PMS5003;51986;52.788;41.368;2023-04-16T08:26:21;36.00;30.00;24.00
65383;PMS5003;51986;52.788;41.368;2023-04-16T08:28:48;37.50;31.50;25.00
65383;PMS5003;51986;52.788;41.368;2023-04-16T08:31:15;37.00;31.00;25.00
65383;PMS5003;51986;52.788;41.368;2023-04-16T08:33:42;36.00;31.00;25.00
65383;PMS5003;51986;52.788;41.368;2023-04-16T08:36:09;36.00;31.00;25.00
65383;PMS5003;51986;52.788;41.368;2023-04-16T08:38:36;36.00;31.00;24.00
65383;PMS5003;51986;52.788;41.368;2023-04-16T08:41:04;35.50;30.00;24.00
65383;PMS5003;51986;52.788;41.368;2023-04-16T08:43:33;35.75;30.50;24.50
65383;PMS5003;51986;52.788;41.368;2023-04-16T08:46:06;35.00;30.00;23.00
65383;PMS5003;51986;52.788;41.368;2023-04-16T08:48:34;36.00;31.00;24.00
65383;PMS5003;51986;52.788;41.368;2023-04-16T08:51:03;36.50;31.00;24.00
65383;PMS5003;51986;52.788;41.368;2023-04-16T08:53:41;35.50;30.50;24.00
65383;PMS5003;51986;52.788;41.368;2023-04-16T08:56:14;35.00;30.00;24.00
65383;PMS5003;51986;52.788;41.368;2023-04-16T08:58:46;35.50;30.00;24.00
65383;PMS5003;51986;52.788;41.368;2023-04-16T09:01:16;36.50;31.50;25.00
65383;PMS5003;51986;52.788;41.368;2023-04-16T09:03:45;37.00;31.50;25.00
65383;PMS5003;51986;52.788;41.368;2023-04-16T09:06:14;37.00;31.00;25.00
65383;PMS5003;51986;52.788;41.368;2023-04-16T09:08:45;36.00;30.75;24.75
65383;PMS5003;51986;52.788;41.368;2023-04-16T09:11:13;36.25;31.00;25.00
65383;PMS5003;51986;52.788;41.368;2023-04-16T09:13:44;37.00;31.50;25.00
65383;PMS5003;51986;52.788;41.368;2023-04-16T09:16:12;36.50;31.00;25.00
65383;PMS5003;51986;52.788;41.368;2023-04-16T09:18:39;37.00;30.50;24.50
65383;PMS5003;51986;52.788;41.368;2023-04-16T09:21:08;36.50;30.75;25.00
65383;PMS5003;51986;52.788;41.368;2023-04-16T09:23:36;37.00;32.00;26.00
65383;PMS5003;51986;52.788;41.368;2023-04-16T09:26:03;37.00;31.00;26.00
65383;PMS5003;51986;52.788;41.368;2023-04-16T09:28:47;39.00;32.25;25.50
65383;PMS5003;51986;52.788;41.368;2023-04-16T09:31:15;36.00;31.00;24.00
65383;PMS5003;51986;52.788;41.368;2023-04-16T09:36:33;37.00;32.00;25.00
65383;PMS5003;51986;52.788;41.368;2023-04-16T09:39:02;36.25;31.25;25.00
65383;PMS5003;51986;52.788;41.368;2023-04-16T09:41:30;37.25;32.25;26.00
65383;PMS5003;51986;52.788;41.368;2023-04-16T09:43:59;38.50;32.75;25.50
65383;PMS5003;51986;52.788;41.368;2023-04-16T09:49:08;37.25;32.00;25.00
65383;PMS5003;51986;52.788;41.368;2023-04-16T09:51:42;37.00;32.00;25.75
65383;PMS5003;51986;52.788;41.368;2023-04-16T09:54:10;36.50;31.00;25.00
65383;PMS5003;51986;52.788;41.368;2023-04-16T09:56:41;37.00;31.00;25.00
65383;PMS5003;51986;52.788;41.368;2023-04-16T09:59:16;38.00;32.00;26.00
65383;PMS5003;51986;52.788;41.368;2023-04-16T10:01:43;37.00;32.00;25.00
65383;PMS5003;51986;52.788;41.368;2023-04-16T10:04:10;39.25;32.75;25.75
65383;PMS5003;51986;52.788;41.368;2023-04-16T10:06:38;39.00;33.00;26.00
65383;PMS5003;51986;52.788;41.368;2023-04-16T10:09:08;37.00;32.00;25.00
65383;PMS5003;51986;52.788;41.368;2023-04-16T10:11:35;37.00;31.00;25.00
65383;PMS5003;51986;52.788;41.368;2023-04-16T10:14:03;36.00;31.00;24.00
65383;PMS5003;51986;52.788;41.368;2023-04-16T10:16:30;36.50;30.75;24.50
65383;PMS5003;51986;52.788;41.368;2023-04-16T10:18:58;37.50;31.50;25.50
65383;PMS5003;51986;52.788;41.368;2023-04-16T10:21:25;37.00;31.00;25.00
65383;PMS5003;51986;52.788;41.368;2023-04-16T10:23:53;36.50;31.00;25.00
65383;PMS5003;51986;52.788;41.368;2023-04-16T10:26:20;37.00;31.50;25.50
65383;PMS5003;51986;52.788;41.368;2023-04-16T10:28:47;37.00;32.00;25.00
65383;PMS5003;51986;52.788;41.368;2023-04-16T10:31:14;34.50;30.00;24.00
65383;PMS5003;51986;52.788;41.368;2023-04-16T10:33:41;36.50;30.50;24.50
65383;PMS5003;51986;52.788;41.368;2023-04-16T10:36:13;37.00;31.00;24.75
65383;PMS5003;51986;52.788;41.368;2023-04-16T10:38:49;36.00;30.00;24.00
65383;PMS5003;51986;52.788;41.368;2023-04-16T10:41:18;36.00;30.25;24.00
65383;PMS5003;51986;52.788;41.368;2023-04-16T10:43:46;37.00;31.00;25.00
65383;PMS5003;51986;52.788;41.368;2023-04-16T10:46:33;37.00;31.00;24.75
65383;PMS5003;51986;52.788;41.368;2023-04-16T10:49:21;37.00;31.00;24.50
65383;PMS5003;51986;52.788;41.368;2023-04-16T10:54:27;35.00;30.00;23.00
65383;PMS5003;51986;52.788;41.368;2023-04-16T10:56:56;36.00;31.00;25.00
65383;PMS5003;51986;52.788;41.368;2023-04-16T10:59:31;37.00;31.75;25.00
65383;PMS5003;51986;52.788;41.368;2023-04-16T11:02:00;37.50;32.50;26.00
65383;PMS5003;51986;52.788;41.368;2023-04-16T11:09:42;35.50;30.00;24.50
65383;PMS5003;51986;52.788;41.368;2023-04-16T11:12:10;37.00;32.00;25.00
65383;PMS5003;51986;52.788;41.368;2023-04-16T11:14:42;37.50;32.00;25.00
65383;PMS5003;51986;52.788;41.368;2023-04-16T11:17:12;37.50;32.50;26.00
65383;PMS5003;51986;52.788;41.368;2023-04-16T11:19:39;37.00;32.00;26.00
65383;PMS5003;51986;52.788;41.368;2023-04-16T11:22:10;37.50;31.50;25.50
65383;PMS5003;51986;52.788;41.368;2023-04-16T11:24:38;38.00;32.00;26.00
65383;PMS5003;51986;52.788;41.368;2023-04-16T11:27:08;37.00;32.00;26.00
65383;PMS5003;51986;52.788;41.368;2023-04-16T11:29:35;37.50;31.00;25.00
65383;PMS5003;51986;52.788;41.368;2023-04-16T11:32:02;37.00;31.00;25.00
65383;PMS5003;51986;52.788;41.368;2023-04-16T11:34:29;37.00;32.00;25.00
65383;PMS5003;51986;52.788;41.368;2023-04-16T11:36:56;37.00;31.00;25.00
65383;PMS5003;51986;52.788;41.368;2023-04-16T11:39:23;38.50;32.75;25.00
65383;PMS5003;51986;52.788;41.368;2023-04-16T11:41:50;38.00;32.00;25.00
65383;PMS5003;51986;52.788;41.368;2023-04-16T11:44:19;37.00;32.00;25.00
65383;PMS5003;51986;52.788;41.368;2023-04-16T11:46:47;37.00;32.00;25.00
65383;PMS5003;51986;52.788;41.368;2023-04-16T11:49:15;39.00;33.00;26.00
65383;PMS5003;51986;52.788;41.368;2023-04-16T11:51:43;39.00;33.00;26.00
65383;PMS5003;51986;52.788;41.368;2023-04-16T11:54:21;39.00;33.00;25.75
65383;PMS5003;51986;52.788;41.368;2023-04-16T11:56:50;38.50;32.50;25.00
65383;PMS5003;51986;52.788;41.368;2023-04-16T11:59:19;36.00;31.00;25.00
65383;PMS5003;51986;52.788;41.368;2023-04-16T12:01:51;39.00;31.50;25.50
65383;PMS5003;51986;52.788;41.368;2023-04-16T12:04:21;39.00;31.00;25.00
65383;PMS5003;51986;52.788;41.368;2023-04-16T12:07:09;36.00;31.00;25.00
65383;PMS5003;51986;52.788;41.368;2023-04-16T12:09:37;36.50;31.00;25.25
65383;PMS5003;51986;52.788;41.368;2023-04-16T12:12:27;37.00;31.50;25.00
65383;PMS5003;51986;52.788;41.368;2023-04-16T12:14:57;37.25;32.00;25.50
65383;PMS5003;51986;52.788;41.368;2023-04-16T12:17:25;37.50;31.00;25.00
65383;PMS5003;51986;52.788;41.368;2023-04-16T12:19:59;36.75;31.50;25.00
65383;PMS5003;51986;52.788;41.368;2023-04-16T12:22:28;37.00;32.00;25.00
65383;PMS5003;51986;52.788;41.368;2023-04-16T12:24:57;36.25;31.00;25.00
65383;PMS5003;51986;52.788;41.368;2023-04-16T12:27:24;39.00;32.50;26.50
65383;PMS5003;51986;52.788;41.368;2023-04-16T12:30:01;36.00;31.00;25.00
65383;PMS5003;51986;52.788;41.368;2023-04-16T12:32:29;36.75;31.00;25.00
65383;PMS5003;51986;52.788;41.368;2023-04-16T12:34:56;37.00;32.00;25.00
65383;PMS5003;51986;52.788;41.368;2023-04-16T12:37:23;36.50;31.00;25.00
65383;PMS5003;51986;52.788;41.368;2023-04-16T12:39:50;37.25;31.75;26.00
65383;PMS5003;51986;52.788;41.368;2023-04-16T12:42:17;36.00;31.00;24.50
65383;PMS5003;51986;52.788;41.368;2023-04-16T12:44:44;36.00;31.00;25.00
65383;PMS5003;51986;52.788;41.368;2023-04-16T12:47:11;37.00;32.00;25.00
65383;PMS5003;51986;52.788;41.368;2023-04-16T12:49:38;37.00;31.25;25.00
65383;PMS5003;51986;52.788;41.368;2023-04-16T12:52:05;37.00;32.00;25.50
65383;PMS5003;51986;52.788;41.368;2023-04-16T12:54:32;36.75;30.75;24.50
65383;PMS5003;51986;52.788;41.368;2023-04-16T12:56:59;37.25;32.00;25.00
65383;PMS5003;51986;52.788;41.368;2023-04-16T12:59:26;39.00;33.00;25.00
65383;PMS5003;51986;52.788;41.368;2023-04-16T13:01:53;37.00;32.00;26.00
65383;PMS5003;51986;52.788;41.368;2023-04-16T13:04:20;38.50;32.50;25.00
65383;PMS5003;51986;52.788;41.368;2023-04-16T13:06:51;37.50;31.50;25.00
65383;PMS5003;51986;52.788;41.368;2023-04-16T13:09:17;38.00;32.25;25.25
65383;PMS5003;51986;52.788;41.368;2023-04-16T13:11:44;37.75;32.00;26.00
65383;PMS5003;51986;52.788;41.368;2023-04-16T13:14:11;38.00;33.00;26.00
65383;PMS5003;51986;52.788;41.368;2023-04-16T13:16:38;37.00;32.00;25.00
65383;PMS5003;51986;52.788;41.368;2023-04-16T13:19:05;38.50;32.00;25.00
65383;PMS5003;51986;52.788;41.368;2023-04-16T13:21:32;39.25;33.00;26.00
65383;PMS5003;51986;52.788;41.368;2023-04-16T13:23:59;39.00;32.50;26.00
65383;PMS5003;51986;52.788;41.368;2023-04-16T13:26:26;39.00;33.00;26.00
65383;PMS5003;51986;52.788;41.368;2023-04-16T13:28:53;36.75;31.50;25.00
65383;PMS5003;51986;52.788;41.368;2023-04-16T13:31:20;37.00;32.00;25.00
65383;PMS5003;51986;52.788;41.368;2023-04-16T13:33:48;36.00;31.00;25.00
65383;PMS5003;51986;52.788;41.368;2023-04-16T13:36:15;37.00;32.00;25.00
65383;PMS5003;51986;52.788;41.368;2023-04-16T13:38:42;36.25;31.00;25.00
65383;PMS5003;51986;52.788;41.368;2023-04-16T13:41:09;36.00;31.00;24.00
65383;PMS5003;51986;52.788;41.368;2023-04-16T13:43:39;37.00;31.00;25.25
65383;PMS5003;51986;52.788;41.368;2023-04-16T13:46:06;37.00;31.75;25.00
65383;PMS5003;51986;52.788;41.368;2023-04-16T13:48:33;36.00;30.50;24.50
65383;PMS5003;51986;52.788;41.368;2023-04-16T13:51:01;37.50;32.00;25.50
65383;PMS5003;51986;52.788;41.368;2023-04-16T13:53:28;36.00;31.00;24.50